Tall Timbers, Maryland
Current Conditions -  °F | °C
As of 8:53 PM on Saturday 22 Nov 2014 (Local Time) from KNUI Reporting Station
Clear Clear  
Wind Chill:   Ceiling: Unl
Heat Index:   Visibility: 10mi
Dew Point: -7°   Wind: 9mph
Humidity: 40%   Direction: 190°S
Pressure: 30.32"   Gusts: NA
Location:  38.17°N, 76.55°W
Report Text: KNUI 230153Z AUTO 19008KT 10SM CLR 06/M07 A3032 RMK AO2 SLP265 T00611067
Loading
Personal Weather Stations






























Interactive Weather Map New forecast layout! Learn more

10-Day Weather Forecast

Advertisements
Track Severe Weather on mobile